Sabadell, Spain
Current Conditions -  °F | °C
As of 9:30 AM on Friday 28 Nov 2014 (Local Time) from LELL Reporting Station
Scattered Clouds Scattered Clouds  
Wind Chill: 57°   Ceiling: Unl
Heat Index: 57°   Visibility: 6mi
Dew Point: 55°   Wind: 0mph
Humidity: 94%   Direction: NA
Pressure: 29.41"   Gusts: NA
Location:  41.55°N, 2.11°E
Report Text: LELL 280830Z 00000KT 9999 FEW018 SCT035 14/13 Q0996
Loading
Personal Weather Stations






























Interactive Weather Map New forecast layout! Learn more

10-Day Weather Forecast

Advertisements
Track Severe Weather on mobile